createdAt,value
2022-10-19T00:01:38.417Z,24.35
2022-10-19T00:04:08.637Z,31.80
2022-10-19T00:06:38.118Z,20.77
2022-10-19T00:09:08.354Z,23.83
2022-10-19T00:11:38.125Z,23.98
2022-10-19T00:14:06.125Z,23.17
2022-10-19T00:16:35.415Z,19.42
2022-10-19T00:19:06.894Z,21.80
2022-10-19T00:21:33.857Z,19.95
2022-10-19T00:24:03.393Z,22.00
2022-10-19T00:26:30.596Z,18.77
2022-10-19T00:28:58.342Z,25.30
2022-10-19T00:31:26.497Z,17.60
2022-10-19T00:33:55.923Z,17.70
2022-10-19T00:36:25.915Z,17.80
2022-10-19T00:38:53.802Z,19.15
2022-10-19T00:41:24.736Z,20.08
2022-10-19T00:43:54.777Z,23.23
2022-10-19T00:46:22.289Z,19.63
2022-10-19T00:48:50.788Z,22.08
2022-10-19T00:51:18.187Z,20.92
2022-10-19T00:53:45.582Z,23.77
2022-10-19T00:56:15.058Z,24.98
2022-10-19T00:58:44.682Z,23.02
2022-10-19T01:01:16.048Z,21.70
2022-10-19T01:03:43.327Z,21.75
2022-10-19T01:06:12.088Z,22.33
2022-10-19T01:08:39.307Z,21.77
2022-10-19T01:11:23.006Z,20.17
2022-10-19T01:14:04.078Z,18.50
2022-10-19T01:16:42.727Z,20.50
2022-10-19T01:19:29.737Z,18.98
2022-10-19T01:22:09.126Z,18.48
2022-10-19T01:24:52.407Z,16.70
2022-10-19T01:27:44.140Z,21.80
2022-10-19T01:30:18.093Z,17.50
2022-10-19T01:33:05.065Z,18.77
2022-10-19T01:35:40.037Z,17.55
2022-10-19T01:38:23.500Z,18.58
2022-10-19T01:40:59.891Z,16.48
2022-10-19T01:43:38.374Z,19.05
2022-10-19T01:46:13.920Z,19.15
2022-10-19T01:48:45.605Z,17.13
2022-10-19T01:51:17.884Z,19.55
2022-10-19T01:53:51.487Z,20.20
2022-10-19T01:56:22.291Z,15.05
2022-10-19T01:58:51.661Z,16.27
2022-10-19T02:01:24.651Z,14.70
2022-10-19T02:03:54.065Z,20.63
2022-10-19T02:06:22.893Z,20.48
2022-10-19T02:08:53.251Z,18.45
2022-10-19T02:11:22.382Z,17.50
2022-10-19T02:13:54.898Z,19.02
2022-10-19T02:16:27.684Z,18.05
2022-10-19T02:18:56.759Z,18.58
2022-10-19T02:21:24.623Z,18.98
2022-10-19T02:23:54.184Z,17.02
2022-10-19T02:26:22.556Z,16.77
2022-10-19T02:28:50.775Z,20.98
2022-10-19T02:31:18.308Z,26.45
2022-10-19T02:33:48.169Z,19.38
2022-10-19T02:36:15.503Z,19.25
2022-10-19T02:38:43.043Z,17.13
2022-10-19T02:41:16.308Z,21.33
2022-10-19T02:43:48.184Z,20.05
2022-10-19T02:46:20.976Z,20.45
2022-10-19T02:48:52.280Z,19.45
2022-10-19T02:51:34.567Z,18.33
2022-10-19T02:54:05.202Z,16.77
2022-10-19T02:56:34.563Z,19.50
2022-10-19T02:59:02.866Z,17.13
2022-10-19T03:01:30.433Z,13.93
2022-10-19T03:04:00.463Z,15.70
2022-10-19T03:06:28.326Z,16.23
2022-10-19T03:08:56.080Z,16.42
2022-10-19T03:11:23.251Z,17.23
2022-10-19T03:13:50.544Z,14.45
2022-10-19T03:16:18.380Z,18.10
2022-10-19T03:18:47.844Z,18.48
2022-10-19T03:21:17.901Z,18.90
2022-10-19T03:23:45.323Z,16.60
2022-10-19T03:26:14.853Z,18.65
2022-10-19T03:28:42.749Z,24.80
2022-10-19T03:31:10.222Z,22.95
2022-10-19T03:33:37.732Z,39.85
2022-10-19T03:36:20.346Z,22.15
2022-10-19T03:38:50.056Z,21.25
2022-10-19T03:41:18.223Z,20.77
2022-10-19T03:43:46.144Z,17.60
2022-10-19T03:46:13.530Z,15.80
2022-10-19T03:48:41.121Z,21.70
2022-10-19T03:51:10.688Z,18.02
2022-10-19T03:53:40.301Z,18.15
2022-10-19T03:56:11.033Z,29.05
2022-10-19T03:58:39.913Z,17.80
2022-10-19T04:01:09.363Z,18.95
2022-10-19T04:03:37.748Z,21.85
2022-10-19T04:06:07.853Z,16.27
2022-10-19T04:08:36.100Z,16.30
2022-10-19T04:11:08.980Z,20.08
2022-10-19T04:13:36.793Z,17.85
2022-10-19T04:16:05.224Z,16.83
2022-10-19T04:18:33.469Z,20.05
2022-10-19T04:21:03.232Z,19.52
2022-10-19T04:23:33.963Z,16.98
2022-10-19T04:26:02.460Z,18.02
2022-10-19T04:28:32.149Z,19.30
2022-10-19T04:31:04.172Z,17.77
2022-10-19T04:33:32.063Z,20.48
2022-10-19T04:36:00.172Z,20.33
2022-10-19T04:38:28.993Z,18.98
2022-10-19T04:41:01.732Z,19.63
2022-10-19T04:43:31.324Z,19.77
2022-10-19T04:46:04.812Z,20.40
2022-10-19T04:48:32.762Z,22.63
2022-10-19T04:50:59.833Z,16.48
2022-10-19T04:53:27.534Z,14.52
2022-10-19T04:55:55.033Z,17.65
2022-10-19T04:58:23.184Z,16.42
2022-10-19T05:00:52.310Z,16.92
2022-10-19T05:03:19.833Z,16.48
2022-10-19T05:05:47.693Z,17.48
2022-10-19T05:08:15.194Z,25.75
2022-10-19T05:10:45.439Z,24.23
2022-10-19T05:13:15.712Z,30.40
2022-10-19T05:15:43.561Z,15.75
2022-10-19T05:18:12.872Z,17.40
2022-10-19T05:20:40.177Z,15.85
2022-10-19T05:23:07.522Z,14.63
2022-10-19T05:25:34.643Z,16.90
2022-10-19T05:28:01.932Z,19.17
2022-10-19T05:30:29.212Z,18.85
2022-10-19T05:32:56.493Z,18.45
2022-10-19T05:35:25.640Z,19.77
2022-10-19T05:37:54.913Z,20.27
2022-10-19T05:40:22.253Z,18.58
2022-10-19T05:42:49.501Z,17.45
2022-10-19T05:45:16.954Z,16.38
2022-10-19T05:47:44.246Z,17.33
2022-10-19T05:50:11.573Z,19.25
2022-10-19T05:52:40.874Z,20.70
2022-10-19T05:55:09.295Z,21.25
2022-10-19T05:57:36.932Z,18.60
2022-10-19T06:00:06.597Z,18.58
2022-10-19T06:02:34.754Z,15.45
2022-10-19T06:05:01.813Z,17.33
2022-10-19T06:07:29.087Z,16.40
2022-10-19T06:09:58.274Z,14.95
2022-10-19T06:12:26.202Z,18.67
2022-10-19T06:14:53.735Z,18.55
2022-10-19T06:17:21.134Z,19.25
2022-10-19T06:19:48.690Z,16.58
2022-10-19T06:22:16.495Z,18.35
2022-10-19T06:24:43.813Z,18.20
2022-10-19T06:27:13.532Z,17.60
2022-10-19T06:29:41.166Z,16.65
2022-10-19T06:32:08.553Z,21.60
2022-10-19T06:34:35.765Z,16.35
2022-10-19T06:37:03.832Z,17.33
2022-10-19T06:39:31.704Z,19.95
2022-10-19T06:41:59.214Z,17.58
2022-10-19T06:44:28.034Z,21.10
2022-10-19T06:46:55.452Z,18.63
2022-10-19T06:49:22.714Z,18.83
2022-10-19T06:51:49.834Z,21.08
2022-10-19T06:54:17.197Z,22.38
2022-10-19T06:56:44.402Z,19.65
2022-10-19T06:59:12.489Z,20.60
2022-10-19T07:01:41.794Z,18.75
2022-10-19T07:04:09.372Z,21.90
2022-10-19T07:06:36.573Z,26.45
2022-10-19T07:09:04.095Z,20.33
2022-10-19T07:11:31.673Z,19.42
2022-10-19T07:13:58.892Z,21.17
2022-10-19T07:16:26.176Z,20.35
2022-10-19T07:18:55.438Z,19.15
2022-10-19T07:21:23.925Z,22.73
2022-10-19T07:23:51.218Z,20.60
2022-10-19T07:26:20.452Z,22.70
2022-10-19T07:28:48.393Z,24.38
2022-10-19T07:31:17.480Z,19.58
2022-10-19T07:33:47.352Z,21.13
2022-10-19T07:36:15.971Z,20.92
2022-10-19T07:38:43.292Z,23.00
2022-10-19T07:41:13.141Z,21.52
2022-10-19T07:43:41.596Z,20.63
2022-10-19T07:46:12.317Z,22.27
2022-10-19T07:48:40.134Z,23.90
2022-10-19T07:51:09.435Z,21.88
2022-10-19T07:53:39.084Z,22.15
2022-10-19T07:56:08.503Z,22.83
2022-10-19T07:58:36.759Z,21.55
2022-10-19T08:01:06.556Z,24.23
2022-10-19T08:06:23.075Z,30.10
2022-10-19T08:08:53.407Z,24.65
2022-10-19T08:11:22.729Z,27.27
2022-10-19T08:13:50.914Z,22.08
2022-10-19T08:16:26.750Z,25.35
2022-10-19T08:18:57.505Z,22.45
2022-10-19T08:21:26.929Z,20.95
2022-10-19T08:23:55.752Z,22.40
2022-10-19T08:26:23.082Z,19.45
2022-10-19T08:28:50.628Z,18.55
2022-10-19T08:31:20.080Z,19.77
2022-10-19T08:33:49.394Z,20.15
2022-10-19T08:36:17.086Z,18.92
2022-10-19T08:38:44.433Z,16.92
2022-10-19T08:41:25.134Z,19.90
2022-10-19T08:44:10.080Z,19.95
2022-10-19T08:49:12.755Z,15.07
2022-10-19T08:51:43.654Z,16.90
2022-10-19T08:54:17.214Z,17.27
2022-10-19T08:56:51.479Z,14.50
2022-10-19T08:59:31.041Z,15.93
2022-10-19T09:02:02.993Z,16.50
2022-10-19T09:04:35.682Z,15.52
2022-10-19T09:07:23.616Z,20.92
2022-10-19T09:09:54.147Z,16.20
2022-10-19T09:12:32.467Z,15.98
2022-10-19T09:15:02.744Z,17.17
2022-10-19T09:17:32.640Z,18.05
2022-10-19T09:20:14.040Z,16.75
2022-10-19T09:22:43.144Z,17.00
2022-10-19T09:25:15.052Z,17.40
2022-10-19T09:27:48.581Z,15.52
2022-10-19T09:30:19.739Z,15.23
2022-10-19T09:32:49.274Z,14.55
2022-10-19T09:35:23.165Z,25.88
2022-10-19T09:37:52.544Z,16.92
2022-10-19T09:40:22.817Z,14.45
2022-10-19T09:42:52.174Z,15.80
2022-10-19T09:45:32.692Z,13.68
2022-10-19T09:48:07.196Z,16.65
2022-10-19T09:50:44.461Z,14.60
2022-10-19T09:53:20.212Z,15.68
2022-10-19T09:55:51.750Z,14.75
2022-10-19T09:58:21.393Z,14.48
2022-10-19T10:00:50.413Z,12.98
2022-10-19T10:03:27.193Z,14.57
2022-10-19T10:05:57.332Z,13.52
2022-10-19T10:08:28.819Z,14.32
2022-10-19T10:11:05.474Z,12.10
2022-10-19T10:13:38.132Z,13.45
2022-10-19T10:16:09.584Z,14.27
2022-10-19T10:18:44.992Z,13.60
2022-10-19T10:21:15.733Z,16.00
2022-10-19T10:23:43.072Z,11.88
2022-10-19T10:26:19.742Z,12.75
2022-10-19T10:28:50.711Z,12.35
2022-10-19T10:31:24.412Z,12.55
2022-10-19T10:34:06.411Z,12.32
2022-10-19T10:36:44.673Z,15.93
2022-10-19T10:39:17.432Z,15.00
2022-10-19T10:41:48.012Z,13.68
2022-10-19T10:44:21.945Z,14.70
2022-10-19T10:46:54.560Z,12.45
2022-10-19T10:49:25.948Z,13.40
2022-10-19T10:51:56.977Z,12.40
2022-10-19T10:54:26.502Z,10.38
2022-10-19T10:57:16.364Z,11.57
2022-10-19T10:59:56.614Z,12.15
2022-10-19T11:02:36.381Z,12.27
2022-10-19T11:05:07.940Z,11.73
2022-10-19T11:07:37.498Z,13.13
2022-10-19T11:10:13.612Z,9.90
2022-10-19T11:12:47.220Z,11.00
2022-10-19T11:15:24.751Z,11.73
2022-10-19T11:18:05.940Z,12.43
2022-10-19T11:20:36.643Z,12.50
2022-10-19T11:23:16.043Z,14.00
2022-10-19T11:25:58.928Z,9.10
2022-10-19T11:28:45.007Z,9.90
2022-10-19T11:31:19.647Z,9.82
2022-10-19T11:33:57.255Z,9.80
2022-10-19T11:36:44.636Z,11.60
2022-10-19T11:39:30.087Z,11.07
2022-10-19T11:42:07.307Z,9.93
2022-10-19T11:44:47.216Z,9.55
2022-10-19T11:47:50.875Z,13.65
2022-10-19T11:50:36.379Z,9.30
2022-10-19T11:53:12.667Z,8.50
2022-10-19T11:55:46.867Z,10.57
2022-10-19T11:58:51.376Z,10.40
2022-10-19T12:01:32.328Z,7.82
2022-10-19T12:04:24.516Z,10.57
2022-10-19T12:07:06.717Z,9.10
2022-10-19T12:09:47.366Z,9.32
2022-10-19T12:12:30.877Z,8.18
2022-10-19T12:15:13.576Z,8.00
2022-10-19T12:17:45.476Z,8.50
2022-10-19T12:20:22.235Z,8.80
2022-10-19T12:22:55.198Z,8.32
2022-10-19T12:25:23.056Z,7.80
2022-10-19T12:27:50.798Z,7.03
2022-10-19T12:30:20.489Z,7.88
2022-10-19T12:33:04.148Z,8.35
2022-10-19T12:35:55.735Z,8.93
2022-10-19T12:38:30.425Z,10.95
2022-10-19T12:41:06.951Z,7.97
2022-10-19T12:43:41.916Z,7.57
2022-10-19T12:46:22.117Z,8.88
2022-10-19T12:49:22.195Z,8.70
2022-10-19T12:51:49.771Z,13.43
2022-10-19T12:54:24.123Z,7.28
2022-10-19T12:56:53.116Z,8.55
2022-10-19T12:59:24.404Z,9.75
2022-10-19T13:01:53.204Z,9.23
2022-10-19T13:04:24.008Z,8.60
2022-10-19T13:07:01.323Z,7.20
2022-10-19T13:09:32.955Z,8.88
2022-10-19T13:12:29.942Z,8.60
2022-10-19T13:14:58.414Z,7.18
2022-10-19T13:17:42.254Z,7.80
2022-10-19T13:20:51.074Z,7.15
2022-10-19T13:23:39.073Z,8.52
2022-10-19T13:26:31.285Z,9.07
2022-10-19T13:28:59.058Z,7.53
2022-10-19T13:31:28.934Z,7.53
2022-10-19T13:33:57.454Z,8.20
2022-10-19T13:36:26.634Z,8.02
2022-10-19T13:39:19.595Z,9.00
2022-10-19T13:41:54.335Z,7.25
2022-10-19T13:44:26.395Z,8.50
2022-10-19T13:47:29.331Z,7.97
2022-10-19T13:50:21.086Z,8.32
2022-10-19T13:53:12.384Z,10.10
2022-10-19T13:56:15.534Z,6.85
2022-10-19T13:59:16.379Z,10.18
2022-10-19T14:02:01.245Z,10.45
2022-10-19T14:04:42.227Z,9.57
2022-10-19T14:07:16.946Z,7.97
2022-10-19T14:10:07.876Z,8.13
2022-10-19T14:12:39.985Z,6.88
2022-10-19T14:15:27.533Z,7.72
2022-10-19T14:17:56.014Z,8.38
2022-10-19T14:20:31.154Z,9.18
2022-10-19T14:22:59.034Z,9.50
2022-10-19T14:25:28.463Z,9.20
2022-10-19T14:28:00.434Z,7.45
2022-10-19T14:30:31.934Z,8.10
2022-10-19T14:33:02.354Z,8.93
2022-10-19T14:35:33.395Z,8.10
2022-10-19T14:38:01.442Z,8.63
2022-10-19T14:40:30.709Z,7.15
2022-10-19T14:43:00.037Z,7.55
2022-10-19T14:45:30.413Z,8.38
2022-10-19T14:48:00.826Z,8.98
2022-10-19T14:50:41.590Z,8.35
2022-10-19T14:53:25.317Z,8.07
2022-10-19T14:55:58.333Z,7.55
2022-10-19T14:58:30.234Z,9.13
2022-10-19T15:01:00.133Z,8.02
2022-10-19T15:03:29.485Z,7.43
2022-10-19T15:06:01.118Z,9.13
2022-10-19T15:08:36.074Z,7.97
2022-10-19T15:11:04.756Z,9.40
2022-10-19T15:13:36.474Z,7.80
2022-10-19T15:16:06.373Z,8.48
2022-10-19T15:18:55.659Z,7.40
2022-10-19T15:21:23.695Z,7.72
2022-10-19T15:23:52.153Z,8.13
2022-10-19T15:26:22.914Z,9.43
2022-10-19T15:28:50.861Z,9.10
2022-10-19T15:31:24.073Z,8.07
2022-10-19T15:33:53.133Z,8.63
2022-10-19T15:36:23.194Z,8.52
2022-10-19T15:39:11.816Z,7.28
2022-10-19T15:41:50.001Z,8.45
2022-10-19T15:44:33.154Z,10.55
2022-10-19T15:47:20.934Z,8.00
2022-10-19T15:49:57.293Z,12.27
2022-10-19T15:52:27.881Z,9.18
2022-10-19T15:54:57.124Z,10.13
2022-10-19T15:57:30.410Z,12.00
2022-10-19T16:00:00.193Z,17.80
2022-10-19T16:02:30.373Z,14.55
2022-10-19T16:04:58.129Z,13.68
2022-10-19T16:07:28.034Z,12.05
2022-10-19T16:09:55.354Z,10.25
2022-10-19T16:12:24.145Z,10.15
2022-10-19T16:14:51.693Z,10.00
2022-10-19T16:17:19.385Z,8.93
2022-10-19T16:19:49.437Z,12.20
2022-10-19T16:22:17.056Z,9.55
2022-10-19T16:24:44.985Z,10.45
2022-10-19T16:27:12.273Z,8.80
2022-10-19T16:29:40.954Z,8.18
2022-10-19T16:32:09.279Z,10.48
2022-10-19T16:34:37.094Z,7.90
2022-10-19T16:37:07.447Z,8.07
2022-10-19T16:39:35.556Z,9.02
2022-10-19T16:42:03.693Z,13.55
2022-10-19T16:44:31.092Z,8.77
2022-10-19T16:46:59.454Z,10.02
2022-10-19T16:49:27.516Z,10.52
2022-10-19T16:51:57.410Z,10.55
2022-10-19T16:54:26.922Z,10.60
2022-10-19T16:56:54.812Z,9.50
2022-10-19T16:59:23.112Z,10.93
2022-10-19T17:01:50.940Z,12.43
2022-10-19T17:04:18.421Z,12.88
2022-10-19T17:06:49.943Z,15.27
2022-10-19T17:12:06.785Z,10.15
2022-10-19T17:14:34.582Z,9.00
2022-10-19T17:17:08.273Z,10.50
2022-10-19T17:19:38.613Z,11.18
2022-10-19T17:22:09.273Z,11.63
2022-10-19T17:24:37.545Z,8.35
2022-10-19T17:27:07.893Z,10.48
2022-10-19T17:29:37.935Z,11.32
2022-10-19T17:32:07.106Z,15.00
2022-10-19T17:34:36.251Z,8.30
2022-10-19T17:37:05.639Z,8.60
2022-10-19T17:39:37.098Z,8.57
2022-10-19T17:42:07.678Z,8.30
2022-10-19T17:44:37.645Z,12.20
2022-10-19T17:47:07.053Z,9.10
2022-10-19T17:49:41.702Z,12.00
2022-10-19T17:52:10.525Z,9.88
2022-10-19T17:54:48.524Z,9.10
2022-10-19T17:57:29.432Z,8.48
2022-10-19T17:59:58.105Z,9.30
2022-10-19T18:02:26.574Z,7.55
2022-10-19T18:04:55.334Z,9.85
2022-10-19T18:07:24.461Z,8.95
2022-10-19T18:09:55.862Z,10.07
2022-10-19T18:12:25.950Z,8.77
2022-10-19T18:15:00.105Z,11.57
2022-10-19T18:17:28.648Z,9.25
2022-10-19T18:19:57.592Z,8.30
2022-10-19T18:22:27.537Z,7.90
2022-10-19T18:24:56.163Z,7.55
2022-10-19T18:27:24.903Z,8.65
2022-10-19T18:29:56.239Z,7.78
2022-10-19T18:32:26.046Z,7.07
2022-10-19T18:35:05.117Z,7.28
2022-10-19T18:37:34.527Z,9.32
2022-10-19T18:40:03.013Z,7.70
2022-10-19T18:42:32.995Z,7.22
2022-10-19T18:45:05.762Z,10.75
2022-10-19T18:47:35.336Z,8.98
2022-10-19T18:50:06.578Z,9.82
2022-10-19T18:52:35.901Z,9.63
2022-10-19T18:55:05.922Z,12.23
2022-10-19T18:57:34.790Z,12.65
2022-10-19T19:00:05.564Z,10.50
2022-10-19T19:02:46.351Z,10.18
2022-10-19T19:05:16.302Z,11.43
2022-10-19T19:07:52.104Z,10.90
2022-10-19T19:10:24.165Z,12.77
2022-10-19T19:12:56.514Z,12.32
2022-10-19T19:15:27.555Z,9.00
2022-10-19T19:18:05.779Z,7.50
2022-10-19T19:20:33.759Z,11.00
2022-10-19T19:23:03.425Z,14.15
2022-10-19T19:25:33.203Z,13.60
2022-10-19T19:28:02.072Z,13.40
2022-10-19T19:30:33.008Z,10.15
2022-10-19T19:33:00.919Z,9.23
2022-10-19T19:35:29.171Z,9.13
2022-10-19T19:37:57.543Z,7.90
2022-10-19T19:40:25.745Z,9.38
2022-10-19T19:42:54.080Z,10.85
2022-10-19T19:45:22.412Z,11.05
2022-10-19T19:47:54.807Z,11.15
2022-10-19T19:50:27.115Z,12.50
2022-10-19T19:53:00.919Z,9.15
2022-10-19T19:55:29.572Z,10.18
2022-10-19T19:58:00.145Z,15.07
2022-10-19T20:00:30.231Z,9.75
2022-10-19T20:03:00.849Z,11.88
2022-10-19T20:05:35.685Z,9.77
2022-10-19T20:08:06.981Z,10.70
2022-10-19T20:10:38.905Z,11.77
2022-10-19T20:13:07.739Z,12.85
2022-10-19T20:15:38.509Z,10.63
2022-10-19T20:18:09.847Z,10.40
2022-10-19T20:20:38.526Z,10.05
2022-10-19T20:23:07.678Z,10.85
2022-10-19T20:25:37.855Z,10.57
2022-10-19T20:28:07.090Z,14.32
2022-10-19T20:30:36.389Z,16.45
2022-10-19T20:33:03.794Z,11.30
2022-10-19T20:35:36.631Z,9.98
2022-10-19T20:38:05.146Z,9.68
2022-10-19T20:40:33.937Z,13.98
2022-10-19T20:43:01.653Z,13.80
2022-10-19T20:45:31.851Z,11.75
2022-10-19T20:47:59.989Z,10.20
2022-10-19T20:50:28.080Z,10.98
2022-10-19T20:52:57.527Z,12.35
2022-10-19T20:55:25.174Z,9.80
2022-10-19T20:57:52.569Z,11.80
2022-10-19T21:00:20.648Z,12.50
2022-10-19T21:02:48.830Z,10.70
2022-10-19T21:05:16.346Z,10.82
2022-10-19T21:07:43.605Z,16.83
2022-10-19T21:10:12.376Z,9.27
2022-10-19T21:12:40.230Z,12.25
2022-10-19T21:15:08.634Z,10.70
2022-10-19T21:17:36.328Z,8.95
2022-10-19T21:20:03.750Z,11.57
2022-10-19T21:22:34.463Z,10.43
2022-10-19T21:25:06.094Z,10.35
2022-10-19T21:27:35.224Z,9.70
2022-10-19T21:30:02.686Z,9.05
2022-10-19T21:32:29.896Z,9.70
2022-10-19T21:34:57.107Z,10.98
2022-10-19T21:37:24.960Z,10.00
2022-10-19T21:39:52.388Z,9.40
2022-10-19T21:42:19.533Z,8.10
2022-10-19T21:44:48.425Z,9.43
2022-10-19T21:47:17.053Z,8.60
2022-10-19T21:49:44.007Z,9.30
2022-10-19T21:52:15.863Z,8.82
2022-10-19T21:54:43.123Z,12.40
2022-10-19T21:57:10.553Z,10.23
2022-10-19T21:59:37.789Z,10.35
2022-10-19T22:02:07.252Z,8.07
2022-10-19T22:04:34.711Z,11.45
2022-10-19T22:07:02.105Z,7.85
2022-10-19T22:09:29.161Z,12.98
2022-10-19T22:11:56.367Z,7.93
2022-10-19T22:14:23.543Z,10.30
2022-10-19T22:16:50.943Z,8.88
2022-10-19T22:19:19.809Z,9.98
2022-10-19T22:21:47.018Z,8.13
2022-10-19T22:24:15.845Z,10.73
2022-10-19T22:26:45.284Z,11.35
2022-10-19T22:29:12.566Z,7.53
2022-10-19T22:31:40.013Z,7.95
2022-10-19T22:34:10.397Z,8.50
2022-10-19T22:36:39.151Z,8.15
2022-10-19T22:39:07.096Z,7.70
2022-10-19T22:41:34.267Z,9.25
2022-10-19T22:44:01.510Z,8.55
2022-10-19T22:46:28.440Z,8.88
2022-10-19T22:48:55.411Z,7.82
2022-10-19T22:51:22.722Z,7.30
2022-10-19T22:53:52.776Z,8.80
2022-10-19T22:56:19.957Z,9.77
2022-10-19T22:58:47.145Z,7.43
2022-10-19T23:01:15.633Z,9.93
2022-10-19T23:03:42.736Z,12.65
2022-10-19T23:06:11.904Z,7.50
2022-10-19T23:08:39.286Z,12.60
2022-10-19T23:11:08.162Z,6.43
2022-10-19T23:13:35.258Z,6.40
2022-10-19T23:16:02.427Z,7.68
2022-10-19T23:18:31.145Z,8.90
2022-10-19T23:21:00.030Z,7.00
2022-10-19T23:23:28.235Z,8.55
2022-10-19T23:25:59.980Z,10.07
2022-10-19T23:28:29.291Z,6.85
2022-10-19T23:30:57.791Z,8.13
2022-10-19T23:33:25.886Z,7.78
2022-10-19T23:35:52.896Z,7.75
2022-10-19T23:38:20.064Z,7.65
2022-10-19T23:40:46.997Z,11.30
2022-10-19T23:43:14.236Z,12.60
2022-10-19T23:45:45.098Z,6.00
2022-10-19T23:48:12.370Z,6.72
2022-10-19T23:50:39.903Z,6.28
2022-10-19T23:53:07.039Z,8.15
2022-10-19T23:55:34.085Z,11.27
2022-10-19T23:58:01.237Z,7.65
